AirNav   Pilot Hours Calculator
 
 936 users online  

67AZ Good Samaritan Hospital Heliport
Phoenix, Arizona, USA

GOING TO PHOENIX?


FAA INFORMATION EFFECTIVE 08 SEPTEMBER 2022

Location

FAA Identifier: 67AZ
Lat/Long: 33-27-54.1560N 112-03-36.5320W
33-27.902600N 112-03.608867W
33.4650433,-112.0601478
(estimated)
Elevation: 1139 ft. / 347 m (estimated)
Variation: 13E (1985)
Time zone: UTC -7 (year round; does not observe DST)
Zip code: 85006

Heliport Operations

Heliport use: Private use, MEDICAL.
Activation date: 11/1968
Control tower: no
ARTCC: ALBUQUERQUE CENTER
FSS: PRESCOTT FLIGHT SERVICE STATION
Attendance: UNATNDD
Wind indicator: yes
Segmented circle: no

Heliport Communications

WX ASOS at PHX (3 nm SE): PHONE 602-231-8557
WX ASOS at SDL (12 nm NE): PHONE 480-483-3049
WX AWOS-3 at GEU (12 nm W): PHONE 623-877-8609
WX ASOS at DVT (13 nm N): 126.5 (623-587-7764)
WX ASOS at FFZ (17 nm E): PHONE 480-641-4111
WX AWOS-3PT at CHD (17 nm SE): PHONE 480-814-9952

Nearby radio navigation aids

VOR radial/distance  VOR name  Freq  Var
PXRr281/4.9PHOENIX VORTAC115.6012E
IWAr282/22.7WILLIE VORTAC113.3013E
TFDr336/35.6STANFIELD VORTAC114.8012E
BXKr075/38.3BUCKEYE VORTAC110.6014E

Heliport Services

Fuel available: A
Airframe service: NONE
Powerplant service: NONE

Runway Information

Helipad H1

Dimensions: 35 x 35 ft. / 11 x 11 m
Surface: concrete
Latitude: 33-27.902667N
Longitude: 112-03.608833W
Elevation: 1139.0 ft.
Traffic pattern: leftleft

Heliport Ownership and Management from official FAA records

Ownership: Privately-owned
Owner: SAMARITAN HEALTH SERVICE
1441 N. 12TH ST
PHOENIX, AZ 85006
Phone 602-244-9327
Manager: DAVID J. SAMUELS
2630 SKY HARBOR BLVD
PHOENIX, AZ 85034
Phone 602-244-9327
EXT 3105.

Heliport Operational Statistics

Aircraft based on the field: 1
Helicopters: 1
    

Additional Remarks

FOR CD CTC PHOENIX APCH AT 602-306-2565.

Instrument Procedures

There are no published instrument procedures at 67AZ.

Some nearby airports with instrument procedures:

KPHX - Phoenix Sky Harbor International Airport (3 nm SE)
KSDL - Scottsdale Airport (12 nm NE)
P19 - Stellar Airpark (12 nm SE)
KGEU - Glendale Municipal Airport (12 nm W)
KDVT - Phoenix Deer Valley Airport (13 nm N)
KGYR - Phoenix Goodyear Airport (16 nm W)
KFFZ - Falcon Field Airport (17 nm E)
KLUF - Luke Air Force Base (17 nm W)
KCHD - Chandler Municipal Airport (17 nm SE)
 
Loc | Ops | Rwys | IFR | FBO | Links
Com | Nav | Svcs | Stats | Notes
Area around 67AZ (Good Samaritan Hospital Heliport)
 
Road maps at: MapQuest Bing Google
 
Aerial photo
No photo
 
Sectional chart

 
Airport distance calculator
Flying to Good Samaritan Hospital Heliport? Find the distance to fly.

From to 67AZ

Sunrise and sunset
Times for 02-Oct-2022
 Local
(UTC-7)
 Zulu
(UTC)
Morning civil twilight05:5912:59
Sunrise06:2413:24
Sunset18:1101:11
Evening civil twilight18:3601:36

Current date and time
Zulu (UTC)  02-Oct-2022 19:59:43
Local (UTC-7)  02-Oct-2022 12:59:43
 
METAR
KPHX 
2nm S 
021951Z VRB03KT 10SM FEW100 FEW250 34/13 A2987 RMK AO2 SLP095 CB DSNT NW T03440128 $
KSDL 
12nm NE 
021953Z VRB05KT 10SM CLR 33/12 A2992 RMK AO2 SLP104 T03280122
KGEU 
13nm W 
021947Z VRB04KT 10SM SCT100 33/14 A2987
KDVT 
13nm N 
021953Z 10SM CLR 33/12 A2991 RMK AO2 SLP102 T03280117
KGYR 
16nm W 
021747Z VRB04KT 10SM FEW070 31/18 A2994
KLUF 
16nm W 
021855Z AUTO 00000KT 10SM CLR 33/14 A2990 RMK AO2 SLP110 T03280144 $
KCHD 
17nm SE 
021947Z 00000KT 10SM CLR 33/12 A2990
KFFZ 
17nm E 
021854Z VRB04KT 10SM CLR 32/14 A2992 RMK AO2 SLP106 T03170139
TAF
KPHX 
2nm S 
021720Z 0218/0324 16007KT P6SM FEW100 FEW150 FM022200 21007KT P6SM FEW100 FEW150 FM030000 25006KT P6SM FEW100 FEW150 FM030400 10005KT P6SM FEW100 SCT150 SCT250 FM031700 14008KT P6SM FEW100 FEW150 FM032100 28008KT P6SM FEW100 FEW150
KSDL 
12nm NE 
021720Z 0218/0318 VRB04KT P6SM FEW100 FEW150 FM022100 21007KT P6SM FEW100 FEW150 FM030300 04005KT P6SM FEW100 SCT150 SCT250 FM030800 VRB03KT P6SM FEW100 FEW150
KDVT 
13nm N 
021720Z 0218/0318 18008KT P6SM FEW100 FEW150 FM022200 23009KT P6SM FEW100 FEW150 FM030400 03008KT P6SM FEW100 SCT150 SCT250 FM030900 VRB04KT P6SM FEW100 FEW150
NOTAMs
Click for the latest NOTAMs
NOTAMs are issued by the DoD/FAA and will open in a separate window not controlled by AirNav.

 

 
 

Would you like to see your business listed on this page?

 If your business provides an interesting product or service to pilots, flight crews, aircraft, or users of the Good Samaritan Hospital Heliport, you should consider listing it here.  To start the listing process, click on the button below
 
Add a business
 

Other Pages about Good Samaritan Hospital Heliport

Update a link
 
Copyright © AirNav, LLC. All rights reserved. Privacy Policy  Contact